Data for 09/25/2008

Time Sea-Level Adjusted Pressure Absolute Pressure Temperature Relative Humidity Dew Point   
(mb) (inHg) (mb) (inHg) (C) (F) (%) (C) (F)
00:05 1018 30.06 847 25.01 15.4 59.7 23 -5.6 21.9
00:10 1018 30.06 847 25.01 15.5 59.9 23 -5.3 22.5
00:15 1018 30.06 847 25.01 15.6 60 20 -7.1 19.3
00:20 1018 30.06 847 25.01 16.7 62 19 -6.7 19.9
00:25 1018 30.06 847 25.01 17 62.6 20 -6.2 20.9
00:30 1018 30.06 847 25.01 16.8 62.2 20 -6.2 20.9
00:35 1018 30.06 847 25.01 16.7 62.1 20 -6.3 20.7
00:40 1018 30.06 847 25.01 16.8 62.3 20 -6.3 20.7
00:45 1018 30.06 847 25.01 17 62.5 19 -6.5 20.3
00:50 1018 30.06 847 25.01 17.1 62.9 19 -6.6 20.2
00:55 1018 30.06 847 25.01 17.3 63.2 18 -6.9 19.5
01:00 1018 30.06 847 25.01 17.2 63 21 -5.4 22.3
01:05 1018 30.06 847 25.01 16.6 61.9 21 -5.7 21.8
01:10 1018 30.06 847 25.01 16.2 61.2 23 -4.8 23.4
01:15 1018 30.06 847 25.01 15.8 60.4 24 -4.9 23.2
01:20 1018 30.06 847 25.01 15.6 60 24 -4.9 23.1
01:25 1018 30.06 847 25.01 15.9 60.6 22 -5.9 21.4
01:30 1018 30.06 847 25.01 16.5 61.7 21 -5.6 21.9
01:35 1018 30.06 847 25.01 16.6 61.8 22 -5.3 22.4
01:40 1018 30.06 847 25.01 16.7 62 21 -5.4 22.2
01:45 1018 30.06 847 25.01 16.7 62.1 21 -5.9 21.4
01:50 1018 30.06 847 25.01 17 62.6 21 -5.7 21.8
01:55 1018 30.06 847 25.01 17.1 62.7 20 -5.8 21.6
02:00 1018 30.06 847 25.01 17.2 63 20 -5.6 22
02:05 1018 30.06 847 25.01 17.3 63.1 20 -5.7 21.7
02:10 1018 30.06 847 25.01 17.4 63.3 20 -5.6 22
02:15 1018 30.06 847 25.01 17.3 63.2 20 -5.9 21.4
02:20 1018 30.06 847 25.01 17.5 63.4 20 -5.5 22.1
02:25 1018 30.06 847 25.01 17.1 62.8 23 -4.1 24.5
02:30 1018 30.06 847 25.01 14.9 58.9 28 -3.6 25.6
02:35 1018 30.06 847 25.01 13.7 56.6 28 -4.6 23.8
02:40 1018 30.06 847 25.01 13.6 56.4 27 -5.1 22.9
02:45 1018 30.06 847 25.01 13.5 56.3 27 -5 23
02:50 1018 30.06 847 25.01 13.9 57 24 -6.2 20.8
02:55 1018 30.06 847 25.01 14.8 58.7 24 -5.4 22.2
03:00 1018 30.06 847 25.01 14.7 58.4 25 -5.2 22.6
03:05 1018 30.06 847 25.01 14.3 57.8 25 -5.2 22.7
03:10 1018 30.06 847 25.01 14.2 57.5 27 -4.4 24.1
03:15 1018 30.06 847 25.01 13.5 56.3 27 -4.9 23.2
03:20 1018 30.06 847 25.01 13.2 55.7 28 -4.9 23.2
03:25 1018 30.06 847 25.01 13.1 55.6 27 -5.3 22.5
03:30 1018 30.06 847 25.01 13.1 55.7 27 -5.3 22.5
03:35 1018 30.06 847 25.01 13.3 56 28 -4.8 23.4
03:40 1018 30.06 847 25.01 13.5 56.2 27 -5 22.9
03:45 1018 30.06 847 25.01 13.4 56.2 27 -4.9 23.2
03:50 1018 30.06 847 25.01 13.4 56.2 27 -5.4 22.4
03:55 1017 30.03 847 25.01 13.6 56.4 28 -4.8 23.4
04:00 1017 30.03 847 25.01 13.2 55.8 28 -5.1 22.9
04:05 1017 30.03 847 25.01 13.3 55.9 27 -5.2 22.7
04:10 1017 30.03 847 25.01 13.4 56 27 -5 22.9
04:15 1017 30.03 847 25.01 13.2 55.7 27 -5.1 22.7
04:20 1017 30.03 847 25.01 13.3 55.9 28 -5 23
04:25 1017 30.03 847 25.01 13.1 55.5 29 -4.7 23.5
04:30 1017 30.03 847 25.01 12.9 55.2 29 -4.8 23.4
04:35 1017 30.03 847 25.01 12.9 55.2 28 -5 23.1
04:40 1017 30.03 847 25.01 12.9 55.2 28 -5.1 22.8
04:45 1017 30.03 847 25.01 13.1 55.6 28 -4.9 23.1
04:50 1018 30.06 847 25.01 12.9 55.1 29 -4.6 23.7
04:55 1018 30.06 847 25.01 12.9 55.2 29 -4.8 23.4
05:00 1018 30.06 847 25.01 12.7 54.8 30 -4.5 24
05:05 1018 30.06 847 25.01 12.7 54.9 29 -5 23.1
05:10 1017 30.03 847 25.01 13 55.4 28 -5.2 22.7
05:15 1017 30.03 847 25.01 13.2 55.8 27 -5.1 22.8
05:20 1017 30.03 847 25.01 13.2 55.7 28 -4.7 23.5
05:25 1017 30.03 847 25.01 13 55.5 30 -4 24.8
05:30 1017 30.03 847 25.01 12.6 54.6 31 -4 24.8
05:35 1017 30.03 847 25.01 11.9 53.4 33 -3.8 25.1
05:40 1017 30.03 847 25.01 11.7 53 31 -4.7 23.5
05:45 1017 30.03 847 25.01 11.7 53 33 -4.1 24.6
05:50 1017 30.03 847 25.01 11.5 52.7 32 -4.4 24.1
05:55 1017 30.03 847 25.01 12.1 53.7 31 -4.6 23.6
06:00 1017 30.03 847 25.01 12.3 54.2 31 -4.1 24.7
06:05 1017 30.03 847 25.01 12.2 53.9 33 -3.7 25.4
06:10 1017 30.03 847 25.01 11.9 53.5 31 -4.5 23.9
06:15 1017 30.03 847 25.01 11.9 53.4 34 -3.5 25.8
06:20 1017 30.03 847 25.01 11.3 52.3 33 -4.2 24.4
06:25 1017 30.03 846 24.98 11.7 53 32 -4.5 24
06:30 1017 30.03 846 24.98 12.2 53.9 32 -4.2 24.5
06:35 1017 30.03 846 24.98 12.1 53.8 33 -3.8 25.2
06:40 1017 30.03 846 24.98 11.9 53.5 34 -3.6 25.6
06:45 1017 30.03 846 24.98 11.8 53.2 33 -3.9 24.9
06:50 1017 30.03 846 24.98 11.8 53.3 34 -3.7 25.4
06:55 1017 30.03 847 25.01 11.7 53.1 33 -3.9 24.9
07:00 1017 30.03 847 25.01 12 53.6 31 -4.5 24
07:05 1017 30.03 847 25.01 12.4 54.3 30 -4.5 23.9
07:10 1017 30.03 847 25.01 12.7 54.8 30 -4.2 24.4
07:15 1017 30.03 847 25.01 12.7 54.8 30 -4.4 24
07:20 1017 30.03 847 25.01 12.8 55 31 -3.9 25
07:25 1017 30.03 847 25.01 12.8 55.1 29 -4.9 23.3
07:30 1017 30.03 847 25.01 13.7 56.7 28 -4.6 23.8
07:35 1017 30.03 847 25.01 13.7 56.6 29 -4.2 24.4
07:40 1017 30.03 847 25.01 13.1 55.6 31 -3.5 25.6
07:45 1018 30.06 847 25.01 12.8 55.1 31 -3.8 25.2
07:50 1018 30.06 847 25.01 13 55.4 29 -4.7 23.5
07:55 1018 30.06 847 25.01 13.3 56 28 -4.6 23.7
08:00 1018 30.06 847 25.01 13.6 56.5 30 -3.8 25.2
08:05 1018 30.06 847 25.01 13.7 56.6 28 -4.4 24.1
08:10 1018 30.06 847 25.01 14.1 57.3 29 -3.5 25.6
08:15 1018 30.06 847 25.01 13.9 57 31 -2.9 26.8
08:20 1018 30.06 847 25.01 13.6 56.5 32 -2.9 26.8
08:25 1018 30.06 847 25.01 13.6 56.4 34 -2 28.4
08:30 1017 30.03 847 25.01 13.3 55.9 30 -3.8 25.2
08:35 1018 30.06 847 25.01 13.4 56.2 32 -2.7 27.1
08:40 1018 30.06 847 25.01 13.3 56 36 -1.4 29.4
08:45 1017 30.03 847 25.01 13.5 56.2 32 -2.8 26.9
08:50 1017 30.03 847 25.01 14.2 57.5 31 -2.5 27.5
08:55 1018 30.06 847 25.01 14.4 57.9 33 -1.8 28.8
09:00 1018 30.06 847 25.01 14.7 58.4 34 -1 30.2
09:05 1018 30.06 847 25.01 14.6 58.3 33 -1.5 29.3
09:10 1018 30.06 847 25.01 14.6 58.3 35 -0.7 30.7
09:15 1018 30.06 847 25.01 14.8 58.6 35 -0.2 31.6
09:20 1018 30.06 847 25.01 15 58.9 37 0.6 33.2
09:25 1018 30.06 847 25.01 15.2 59.3 38 1.2 34.2
09:30 1018 30.06 847 25.01 15.5 59.8 36 0.7 33.2
09:35 1018 30.06 847 25.01 15.8 60.5 33 -0.3 31.4
09:40 1018 30.06 847 25.01 16.1 61.1 33 0 32.1
09:45 1018 30.06 847 25.01 16.4 61.5 39 2.5 36.6
09:50 1018 30.06 847 25.01 16.8 62.2 32 0 32
09:55 1018 30.06 847 25.01 16.7 62.1 33 0.3 32.6
10:00 1018 30.06 847 25.01 16.7 62.1 32 0.2 32.4
10:05 1017 30.03 847 25.01 16.9 62.3 34 1 33.9
10:10 1018 30.06 847 25.01 17.1 62.8 30 -0.3 31.5
10:15 1018 30.06 847 25.01 17.7 63.8 30 0 32.1
10:20 1018 30.06 847 25.01 18 64.5 29 -0.1 31.7
10:25 1018 30.06 847 25.01 18.4 65.1 27 -0.9 30.4
10:30 1018 30.06 847 25.01 18.8 65.9 27 -0.4 31.2
10:35 1018 30.06 847 25.01 18.9 66.1 27 -0.2 31.6
10:40 1018 30.06 847 25.01 19.1 66.4 28 0.2 32.4
10:45 1018 30.06 847 25.01 19 66.2 27 -0.3 31.5
10:50 1018 30.06 847 25.01 19.2 66.6 27 0.2 32.3
10:55 1018 30.06 847 25.01 19.6 67.3 27 0.2 32.4
11:00 1018 30.06 847 25.01 19.9 67.9 28 0.8 33.4
11:05 1018 30.06 847 25.01 20.1 68.1 27 0.5 32.9
11:10 1018 30.06 847 25.01 20.2 68.3 25 -0.4 31.3
11:15 1018 30.06 847 25.01 19.5 67.1 25 -0.7 30.7
11:20 1018 30.06 847 25.01 19.2 66.5 28 0.2 32.3
11:25 1018 30.06 847 25.01 18.9 66 26 -1 30.1
11:30 1018 30.06 847 25.01 18.8 65.8 24 -1.8 28.7
11:35 1018 30.06 847 25.01 18.9 66 26 -0.9 30.4
11:40 1018 30.06 847 25.01 19.4 66.9 25 -1 30.2
11:45 1018 30.06 847 25.01 19.6 67.3 25 -0.6 31
11:50 1018 30.06 847 25.01 20.1 68.1 24 -1.1 30
11:55 1018 30.06 847 25.01 20 68 23 -1.8 28.8
12:00 1018 30.06 847 25.01 19.9 67.8 23 -1.9 28.6
12:05 1018 30.06 847 25.01 20.2 68.3 24 -0.8 30.6
12:10 1018 30.06 847 25.01 20.2 68.4 24 -0.9 30.4
12:15 1018 30.06 847 25.01 20 68 24 -0.8 30.5
12:20 1018 30.06 847 25.01 20.3 68.5 25 -0.5 31.2
12:25 1018 30.06 847 25.01 20.7 69.2 22 -1.6 29.1
12:30 1018 30.06 847 25.01 20.7 69.2 23 -1.3 29.7
12:35 1018 30.06 847 25.01 20.7 69.2 21 -2 28.5
12:40 1018 30.06 847 25.01 20.9 69.6 22 -1.6 29.2
12:45 1018 30.06 847 25.01 20.6 69.1 25 -0.1 31.8
12:50 1018 30.06 847 25.01 20 68.1 21 -2.8 27
12:55 1018 30.06 847 25.01 20 68 22 -2.5 27.5
13:00 1018 30.06 847 25.01 20.1 68.1 21 -3.1 26.5
13:05 1018 30.06 847 25.01 20.5 69 21 -2.3 27.8
13:10 1018 30.06 847 25.01 20.4 68.8 23 -1.5 29.2
13:15 1018 30.06 847 25.01 20.4 68.6 22 -1.8 28.7
13:20 1018 30.06 847 25.01 20.5 68.9 19 -3.6 25.5
13:25 1018 30.06 847 25.01 20.7 69.3 21 -2.3 27.8
13:30 1018 30.06 847 25.01 20.7 69.2 20 -2.8 26.9
13:35 1017 30.03 847 25.01 20.7 69.3 19 -3.3 26.1
13:40 1017 30.03 847 25.01 21.2 70.2 22 -1.3 29.6
13:45 1017 30.03 847 25.01 21.6 70.8 21 -1.4 29.6
13:50 1017 30.03 847 25.01 21.7 71.1 20 -2 28.3
13:55 1017 30.03 847 25.01 22.1 71.8 20 -1.6 29.2
14:00 1017 30.03 846 24.98 21.9 71.4 20 -2 28.4
14:05 1017 30.03 846 24.98 21.9 71.4 19 -2.4 27.7
14:10 1017 30.03 846 24.98 22 71.6 21 -1.2 29.9
14:15 1017 30.03 846 24.98 21.9 71.5 21 -1.4 29.6
14:20 1017 30.03 846 24.98 21.7 71 22 -0.6 30.9
14:25 1017 30.03 846 24.98 21.5 70.6 21 -1.8 28.8
14:30 1017 30.03 846 24.98 21.3 70.4 23 -0.7 30.7
14:35 1017 30.03 846 24.98 21.4 70.6 21 -1.7 28.9
14:40 1017 30.03 846 24.98 21.5 70.8 22 -1 30.2
14:45 1017 30.03 846 24.98 21.3 70.3 18 -3.5 25.7
14:50 1017 30.03 846 24.98 21.6 71 20 -2.4 27.8
14:55 1017 30.03 846 24.98 22.1 71.8 21 -0.9 30.4
15:00 1017 30.03 846 24.98 22.5 72.4 18 -3.1 26.4
15:05 1017 30.03 846 24.98 22.4 72.4 19 -2.1 28.2
15:10 1017 30.03 846 24.98 22.7 72.9 18 -2.4 27.6
15:15 1017 30.03 846 24.98 22.9 73.3 19 -1.4 29.4
15:20 1017 30.03 846 24.98 23.1 73.5 19 -1.6 29.2
15:25 1017 30.03 846 24.98 22.6 72.6 18 -2.5 27.4
15:30 1017 30.03 846 24.98 22.4 72.4 18 -2.8 27
15:35 1017 30.03 846 24.98 22.8 73.1 20 -1.4 29.6
15:40 1017 30.03 846 24.98 22.4 72.3 20 -1.6 29.2
15:45 1017 30.03 846 24.98 22 71.6 20 -1.7 29
15:50 1017 30.03 846 24.98 21.8 71.3 20 -1.7 28.9
15:55 1017 30.03 846 24.98 21.7 71 23 -0.2 31.7
16:00 1017 30.03 846 24.98 21.5 70.7 24 0 32
16:05 1017 30.03 846 24.98 21.7 71.1 22 -0.4 31.2
16:10 1017 30.03 846 24.98 21.8 71.3 22 -0.8 30.6
16:15 1017 30.03 846 24.98 21.5 70.7 21 -1.5 29.3
16:20 1017 30.03 846 24.98 21.3 70.3 19 -2.9 26.8
16:25 1017 30.03 846 24.98 21.2 70.2 17 -4.3 24.3
16:30 1017 30.03 846 24.98 21.2 70.2 18 -3.7 25.3
16:35 1017 30.03 846 24.98 21.3 70.4 21 -2 28.5
16:40 1017 30.03 846 24.98 21.4 70.5 21 -1.5 29.2
16:45 1017 30.03 846 24.98 21.3 70.4 20 -2.5 27.6
16:50 1017 30.03 846 24.98 21.3 70.4 20 -2.6 27.3
16:55 1017 30.03 846 24.98 21.2 70.1 21 -1.8 28.7
17:00 1017 30.03 846 24.98 21.1 70 20 -2.6 27.3
17:05 1017 30.03 846 24.98 21.2 70.1 22 -1.5 29.4
17:10 1017 30.03 846 24.98 21 69.9 25 0.3 32.6
17:15 1017 30.03 846 24.98 20.8 69.5 22 -1.4 29.5
17:20 1017 30.03 846 24.98 20.8 69.4 23 -1.2 29.9
17:25 1017 30.03 846 24.98 20.7 69.3 25 0 32
17:30 1017 30.03 846 24.98 20.9 69.5 20 -2.7 27.1
17:35 1017 30.03 846 24.98 21.2 70.1 18 -3.8 25.1
17:40 1017 30.03 846 24.98 21 69.9 22 -1.2 29.9
17:45 1017 30.03 846 24.98 20.5 69 24 -0.7 30.8
17:50 1017 30.03 846 24.98 20.4 68.7 27 0.8 33.4
17:55 1017 30.03 846 24.98 20.1 68.2 25 -0.3 31.4
18:00 1017 30.03 846 24.98 20.2 68.4 26 0.2 32.4
18:05 1017 30.03 846 24.98 19.8 67.6 20 -4 24.9
18:10 1017 30.03 846 24.98 20.2 68.4 15 -7.4 18.6
18:15 1017 30.03 846 24.98 20.9 69.5 24 -0.1 31.8
18:20 1017 30.03 846 24.98 20.1 68.1 26 0.3 32.6
18:25 1017 30.03 846 24.98 20.2 68.3 21 -2.7 27.2
18:30 1017 30.03 846 24.98 20 68.1 25 -0.2 31.7
18:35 1017 30.03 846 24.98 19.8 67.6 25 -0.4 31.2
18:40 1017 30.03 846 24.98 19.6 67.3 24 -1.3 29.6
18:45 1017 30.03 846 24.98 19.7 67.4 22 -2.7 27.2
18:50 1017 30.03 846 24.98 20.1 68.1 23 -1.5 29.3
18:55 1017 30.03 846 24.98 19.8 67.7 23 -1.6 29.1
19:00 1017 30.03 846 24.98 19.5 67.1 24 -1.7 29
19:05 1017 30.03 846 24.98 19.5 67 21 -3.6 25.5
19:10 1017 30.03 846 24.98 19.9 67.8 20 -3.4 25.8
19:15 1017 30.03 846 24.98 20 67.9 21 -3.1 26.4
19:20 1017 30.03 846 24.98 20.1 68.2 22 -2.3 27.8
19:25 1017 30.03 846 24.98 19.8 67.6 21 -2.9 26.8
19:30 1017 30.03 846 24.98 19.6 67.2 20 -4 24.8
19:35 1017 30.03 846 24.98 19.6 67.3 20 -3.6 25.5
19:40 1017 30.03 846 24.98 19.4 66.9 21 -3.1 26.4
19:45 1017 30.03 846 24.98 19.3 66.7 26 -0.6 30.9
19:50 1017 30.03 846 24.98 19 66.3 22 -3.3 26
19:55 1017 30.03 846 24.98 19.3 66.8 23 -2.4 27.6
20:00 1017 30.03 846 24.98 19.4 66.8 32 2.4 36.3
20:05 1017 30.03 846 24.98 18.6 65.5 26 -1 30.3
20:10 1017 30.03 846 24.98 18.2 64.7 27 -1.1 30.1
20:15 1017 30.03 846 24.98 18.2 64.7 25 -2.1 28.2
20:20 1017 30.03 846 24.98 18.2 64.8 26 -1.3 29.7
20:25 1017 30.03 846 24.98 17.9 64.3 29 -0.2 31.7
20:30 1017 30.03 846 24.98 17.8 64.1 30 0.2 32.4
20:35 1017 30.03 846 24.98 17.6 63.7 33 1.1 34
20:40 1017 30.03 846 24.98 17 62.5 29 -1 30.2
20:45 1017 30.03 846 24.98 17 62.6 30 -0.5 31
20:50 1017 30.03 846 24.98 17.3 63.1 28 -1.2 29.9
20:55 1017 30.03 846 24.98 16.8 62.2 31 -0.3 31.5
21:00 1017 30.03 846 24.98 16.3 61.4 36 1.3 34.4
21:05 1017 30.03 846 24.98 16.1 61.1 31 -0.9 30.3
21:10 1017 30.03 846 24.98 15.7 60.3 30 -1.5 29.2
21:15 1017 30.03 846 24.98 15.8 60.5 27 -3 26.5
21:20 1017 30.03 846 24.98 16.2 61.2 29 -1.6 29.1
21:25 1017 30.03 847 25.01 16 60.9 26 -3.5 25.8
21:30 1017 30.03 847 25.01 16.7 62.1 29 -1.4 29.4
21:35 1017 30.03 847 25.01 16 60.7 31 -0.9 30.3
21:40 1017 30.03 847 25.01 14.9 58.9 31 -1.8 28.7
21:45 1017 30.03 847 25.01 14.8 58.6 29 -2.8 27
21:50 1017 30.03 847 25.01 15 58.9 31 -1.9 28.6
21:55 1017 30.03 847 25.01 14.7 58.5 31 -2 28.4
22:00 1017 30.03 847 25.01 14.4 58 31 -2.2 28
22:05 1018 30.06 847 25.01 14.3 57.8 34 -1.1 30.1
22:10 1018 30.06 847 25.01 13.8 56.8 32 -2.4 27.6
22:15 1018 30.06 847 25.01 14.1 57.4 31 -2.6 27.3
22:20 1018 30.06 847 25.01 14 57.2 33 -1.8 28.8
22:25 1018 30.06 847 25.01 14.5 58.1 29 -3.2 26.3
22:30 1018 30.06 847 25.01 15 59 28 -3.4 25.9
22:35 1018 30.06 847 25.01 15.6 60.1 24 -4.8 23.4
22:40 1018 30.06 847 25.01 16.3 61.3 23 -4.7 23.6
22:45 1018 30.06 847 25.01 16.3 61.4 24 -4 24.9
22:50 1018 30.06 847 25.01 15.8 60.4 25 -4.1 24.7
22:55 1018 30.06 848 25.04 15.4 59.7 27 -3.4 25.8
23:00 1018 30.06 848 25.04 15.3 59.6 25 -4.7 23.6
23:05 1019 30.09 848 25.04 15.3 59.5 25 -4.7 23.6
23:10 1019 30.09 848 25.04 14.9 58.9 26 -4.2 24.4
23:15 1019 30.09 848 25.04 14.8 58.7 26 -4.6 23.7
23:20 1019 30.09 848 25.04 14.8 58.7 27 -3.9 24.9
23:25 1019 30.09 848 25.04 14.6 58.3 27 -4.2 24.5
23:30 1019 30.09 848 25.04 14.7 58.5 28 -3.6 25.5
23:35 1019 30.09 848 25.04 14.7 58.4 29 -3.3 26.1
23:40 1019 30.09 848 25.04 14.6 58.3 29 -3.2 26.3
23:45 1019 30.09 848 25.04 14.6 58.3 29 -2.9 26.7
23:50 1019 30.09 848 25.04 14.5 58 31 -2.6 27.4
23:55 1019 30.09 849 25.07 14.5 58.1 31 -2.5 27.5
24:00 1020 30.12 849 25.07 14.6 58.2 32 -1.8 28.8